sensor_id;sensor_type;location;lat;lon;timestamp;pressure;altitude;pressure_sealevel;temperature;humidity
10466;BME280;5280;42.600;23.556;2022-10-03T00:01:09;93441.06;;;12.03;96.40
10466;BME280;5280;42.600;23.556;2022-10-03T00:03:46;93454.38;;;12.13;96.45
10466;BME280;5280;42.600;23.556;2022-10-03T00:06:26;93442.94;;;12.13;96.41
10466;BME280;5280;42.600;23.556;2022-10-03T00:09:05;93453.25;;;12.16;95.58
10466;BME280;5280;42.600;23.556;2022-10-03T00:11:44;93441.25;;;12.12;94.18
10466;BME280;5280;42.600;23.556;2022-10-03T00:14:23;93435.25;;;12.10;94.78
10466;BME280;5280;42.600;23.556;2022-10-03T00:17:01;93446.44;;;12.13;95.08
10466;BME280;5280;42.600;23.556;2022-10-03T00:19:35;93420.72;;;12.04;93.65
10466;BME280;5280;42.600;23.556;2022-10-03T00:22:15;93435.84;;;12.13;93.36
10466;BME280;5280;42.600;23.556;2022-10-03T00:24:57;93427.16;;;12.11;93.74
10466;BME280;5280;42.600;23.556;2022-10-03T00:27:34;93411.94;;;12.03;92.98
10466;BME280;5280;42.600;23.556;2022-10-03T00:30:15;93412.50;;;12.07;93.44
10466;BME280;5280;42.600;23.556;2022-10-03T00:33:03;93397.72;;;12.04;94.13
10466;BME280;5280;42.600;23.556;2022-10-03T00:36:00;93393.22;;;11.95;93.19
10466;BME280;5280;42.600;23.556;2022-10-03T00:50:49;93383.63;;;11.83;94.67
10466;BME280;5280;42.600;23.556;2022-10-03T00:53:40;93386.41;;;11.82;94.14
10466;BME280;5280;42.600;23.556;2022-10-03T00:59:20;93385.47;;;11.72;95.53
10466;BME280;5280;42.600;23.556;2022-10-03T01:01:53;93383.09;;;11.69;97.25
10466;BME280;5280;42.600;23.556;2022-10-03T01:04:41;93381.50;;;11.66;97.53
10466;BME280;5280;42.600;23.556;2022-10-03T01:07:23;93382.22;;;11.68;96.51
10466;BME280;5280;42.600;23.556;2022-10-03T01:10:00;93389.34;;;11.68;96.75
10466;BME280;5280;42.600;23.556;2022-10-03T01:12:48;93391.03;;;11.69;95.62
10466;BME280;5280;42.600;23.556;2022-10-03T01:15:27;93379.53;;;11.58;96.66
10466;BME280;5280;42.600;23.556;2022-10-03T01:18:08;93354.41;;;11.53;96.70
10466;BME280;5280;42.600;23.556;2022-10-03T01:20:47;93373.44;;;11.68;95.83
10466;BME280;5280;42.600;23.556;2022-10-03T01:26:54;93371.75;;;11.66;97.16
10466;BME280;5280;42.600;23.556;2022-10-03T01:29:30;93366.16;;;11.60;97.76
10466;BME280;5280;42.600;23.556;2022-10-03T01:32:22;93371.06;;;11.64;97.27
10466;BME280;5280;42.600;23.556;2022-10-03T01:34:58;93368.53;;;11.63;96.51
10466;BME280;5280;42.600;23.556;2022-10-03T01:37:31;93366.63;;;11.65;96.36
10466;BME280;5280;42.600;23.556;2022-10-03T01:40:10;93356.78;;;11.56;96.30
10466;BME280;5280;42.600;23.556;2022-10-03T01:42:44;93346.56;;;11.51;97.81
10466;BME280;5280;42.600;23.556;2022-10-03T01:45:27;93370.47;;;11.61;98.00
10466;BME280;5280;42.600;23.556;2022-10-03T01:47:59;93363.53;;;11.60;97.73
10466;BME280;5280;42.600;23.556;2022-10-03T01:50:32;93373.38;;;11.58;98.85
10466;BME280;5280;42.600;23.556;2022-10-03T01:53:06;93369.66;;;11.60;98.36
10466;BME280;5280;42.600;23.556;2022-10-03T01:55:48;93362.28;;;11.64;97.34
10466;BME280;5280;42.600;23.556;2022-10-03T01:58:22;93354.47;;;11.62;97.30
10466;BME280;5280;42.600;23.556;2022-10-03T02:01:08;93342.97;;;11.52;98.00
10466;BME280;5280;42.600;23.556;2022-10-03T02:03:42;93358.63;;;11.55;98.94
10466;BME280;5280;42.600;23.556;2022-10-03T02:06:18;93366.41;;;11.57;97.85
10466;BME280;5280;42.600;23.556;2022-10-03T02:08:53;93367.50;;;11.54;97.54
10466;BME280;5280;42.600;23.556;2022-10-03T02:11:27;93343.63;;;11.45;98.36
10466;BME280;5280;42.600;23.556;2022-10-03T02:14:00;93360.41;;;11.55;99.14
10466;BME280;5280;42.600;23.556;2022-10-03T02:16:38;93351.03;;;11.51;100.00
10466;BME280;5280;42.600;23.556;2022-10-03T02:19:12;93344.31;;;11.47;100.00
10466;BME280;5280;42.600;23.556;2022-10-03T02:21:47;93347.31;;;11.53;100.00
10466;BME280;5280;42.600;23.556;2022-10-03T02:24:26;93352.47;;;11.55;100.00
10466;BME280;5280;42.600;23.556;2022-10-03T02:27:11;93348.25;;;11.52;99.69
10466;BME280;5280;42.600;23.556;2022-10-03T02:39:41;93350.94;;;11.41;100.00
10466;BME280;5280;42.600;23.556;2022-10-03T02:42:30;93329.97;;;11.29;100.00
10466;BME280;5280;42.600;23.556;2022-10-03T02:45:27;93359.50;;;11.45;100.00
10466;BME280;5280;42.600;23.556;2022-10-03T02:48:28;93361.31;;;11.44;100.00
10466;BME280;5280;42.600;23.556;2022-10-03T03:00:45;93343.66;;;11.34;100.00
10466;BME280;5280;42.600;23.556;2022-10-03T03:06:42;93351.47;;;11.35;100.00
10466;BME280;5280;42.600;23.556;2022-10-03T03:12:47;93352.56;;;11.33;100.00
10466;BME280;5280;42.600;23.556;2022-10-03T03:18:25;93331.91;;;11.27;100.00
10466;BME280;5280;42.600;23.556;2022-10-03T03:21:04;93336.97;;;11.30;100.00
10466;BME280;5280;42.600;23.556;2022-10-03T03:23:49;93338.38;;;11.34;100.00
10466;BME280;5280;42.600;23.556;2022-10-03T03:26:54;93323.47;;;11.33;100.00
10466;BME280;5280;42.600;23.556;2022-10-03T03:29:39;93336.41;;;11.36;100.00
10466;BME280;5280;42.600;23.556;2022-10-03T03:32:18;93332.31;;;11.43;100.00
10466;BME280;5280;42.600;23.556;2022-10-03T03:34:57;93334.00;;;11.44;100.00
10466;BME280;5280;42.600;23.556;2022-10-03T03:37:30;93322.31;;;11.46;100.00
10466;BME280;5280;42.600;23.556;2022-10-03T03:40:22;93311.41;;;11.40;100.00
10466;BME280;5280;42.600;23.556;2022-10-03T03:43:28;93323.38;;;11.55;100.00
10466;BME280;5280;42.600;23.556;2022-10-03T03:46:10;93317.47;;;11.51;100.00
10466;BME280;5280;42.600;23.556;2022-10-03T03:48:59;93314.97;;;11.50;100.00
10466;BME280;5280;42.600;23.556;2022-10-03T03:51:33;93324.91;;;11.57;100.00
10466;BME280;5280;42.600;23.556;2022-10-03T03:54:40;93263.38;;;11.23;100.00
10466;BME280;5280;42.600;23.556;2022-10-03T03:57:24;93326.31;;;11.61;100.00
10466;BME280;5280;42.600;23.556;2022-10-03T04:00:05;93298.25;;;11.49;100.00
10466;BME280;5280;42.600;23.556;2022-10-03T04:02:58;93310.97;;;11.55;100.00
10466;BME280;5280;42.600;23.556;2022-10-03T04:05:43;93324.50;;;11.62;100.00
10466;BME280;5280;42.600;23.556;2022-10-03T04:08:27;93312.91;;;11.53;100.00
10466;BME280;5280;42.600;23.556;2022-10-03T04:11:11;93312.06;;;11.53;100.00
10466;BME280;5280;42.600;23.556;2022-10-03T04:16:57;93300.38;;;11.55;100.00
10466;BME280;5280;42.600;23.556;2022-10-03T04:20:01;93307.66;;;11.63;100.00
10466;BME280;5280;42.600;23.556;2022-10-03T04:22:43;93291.16;;;11.50;100.00
10466;BME280;5280;42.600;23.556;2022-10-03T04:25:39;93312.69;;;11.66;100.00
10466;BME280;5280;42.600;23.556;2022-10-03T04:31:21;93317.16;;;11.65;100.00
10466;BME280;5280;42.600;23.556;2022-10-03T04:34:04;93304.28;;;11.61;100.00
10466;BME280;5280;42.600;23.556;2022-10-03T04:37:04;93312.69;;;11.66;100.00
10466;BME280;5280;42.600;23.556;2022-10-03T04:39:43;93307.66;;;11.63;100.00
10466;BME280;5280;42.600;23.556;2022-10-03T04:42:19;93304.06;;;11.64;100.00
10466;BME280;5280;42.600;23.556;2022-10-03T04:45:12;93302.81;;;11.68;100.00
10466;BME280;5280;42.600;23.556;2022-10-03T04:47:47;93296.13;;;11.64;100.00
10466;BME280;5280;42.600;23.556;2022-10-03T04:50:32;93310.28;;;11.74;100.00
10466;BME280;5280;42.600;23.556;2022-10-03T04:53:22;93315.06;;;11.80;100.00
10466;BME280;5280;42.600;23.556;2022-10-03T04:55:55;93306.13;;;11.81;100.00
10466;BME280;5280;42.600;23.556;2022-10-03T04:58:33;93301.66;;;11.82;100.00
10466;BME280;5280;42.600;23.556;2022-10-03T05:01:10;93307.41;;;11.87;100.00
10466;BME280;5280;42.600;23.556;2022-10-03T05:03:51;93302.97;;;11.87;100.00
10466;BME280;5280;42.600;23.556;2022-10-03T05:06:27;93294.19;;;11.87;100.00
10466;BME280;5280;42.600;23.556;2022-10-03T05:09:11;93306.56;;;11.86;100.00
10466;BME280;5280;42.600;23.556;2022-10-03T05:11:54;93311.47;;;11.91;100.00
10466;BME280;5280;42.600;23.556;2022-10-03T05:14:30;93289.16;;;11.84;100.00
10466;BME280;5280;42.600;23.556;2022-10-03T05:17:10;93310.38;;;11.93;100.00
10466;BME280;5280;42.600;23.556;2022-10-03T05:19:59;93292.50;;;11.86;100.00
10466;BME280;5280;42.600;23.556;2022-10-03T05:22:39;93314.31;;;11.99;100.00
10466;BME280;5280;42.600;23.556;2022-10-03T05:25:21;93294.50;;;11.93;100.00
10466;BME280;5280;42.600;23.556;2022-10-03T05:28:00;93298.09;;;11.92;100.00
10466;BME280;5280;42.600;23.556;2022-10-03T05:30:40;93307.66;;;12.04;100.00
10466;BME280;5280;42.600;23.556;2022-10-03T05:33:14;93312.97;;;12.04;100.00
10466;BME280;5280;42.600;23.556;2022-10-03T05:35:58;93311.31;;;12.13;100.00
10466;BME280;5280;42.600;23.556;2022-10-03T05:41:31;93311.03;;;12.16;100.00
10466;BME280;5280;42.600;23.556;2022-10-03T05:44:03;93311.88;;;12.17;100.00
10466;BME280;5280;42.600;23.556;2022-10-03T05:46:49;93316.66;;;12.23;100.00
10466;BME280;5280;42.600;23.556;2022-10-03T05:49:35;93296.59;;;12.20;100.00
10466;BME280;5280;42.600;23.556;2022-10-03T05:52:41;93297.59;;;12.29;100.00
10466;BME280;5280;42.600;23.556;2022-10-03T05:55:25;93285.47;;;12.36;100.00
10466;BME280;5280;42.600;23.556;2022-10-03T05:58:28;93265.38;;;12.33;100.00
10466;BME280;5280;42.600;23.556;2022-10-03T06:01:23;93249.19;;;12.36;100.00
10466;BME280;5280;42.600;23.556;2022-10-03T06:04:06;93245.16;;;12.42;100.00
10466;BME280;5280;42.600;23.556;2022-10-03T06:06:50;93253.41;;;12.39;100.00
10466;BME280;5280;42.600;23.556;2022-10-03T06:09:41;93250.91;;;12.47;100.00
10466;BME280;5280;42.600;23.556;2022-10-03T06:12:18;93262.50;;;12.56;100.00
10466;BME280;5280;42.600;23.556;2022-10-03T06:17:56;93287.38;;;12.64;100.00
10466;BME280;5280;42.600;23.556;2022-10-03T06:20:55;93311.81;;;12.77;100.00
10466;BME280;5280;42.600;23.556;2022-10-03T06:23:54;93318.81;;;12.78;100.00
10466;BME280;5280;42.600;23.556;2022-10-03T06:26:48;93315.28;;;12.68;100.00
10466;BME280;5280;42.600;23.556;2022-10-03T06:29:44;93318.28;;;12.84;100.00
10466;BME280;5280;42.600;23.556;2022-10-03T06:33:05;93309.31;;;12.85;100.00
10466;BME280;5280;42.600;23.556;2022-10-03T06:36:04;93320.22;;;12.92;100.00
10466;BME280;5280;42.600;23.556;2022-10-03T06:42:14;93309.22;;;13.06;100.00
10466;BME280;5280;42.600;23.556;2022-10-03T06:45:01;93322.69;;;13.14;100.00
10466;BME280;5280;42.600;23.556;2022-10-03T06:47:48;93320.56;;;13.18;100.00
10466;BME280;5280;42.600;23.556;2022-10-03T06:50:36;93305.19;;;13.21;100.00
10466;BME280;5280;42.600;23.556;2022-10-03T06:53:21;93318.75;;;13.28;96.62
10466;BME280;5280;42.600;23.556;2022-10-03T06:56:25;93303.81;;;13.27;95.13
10466;BME280;5280;42.600;23.556;2022-10-03T06:59:30;93331.50;;;13.44;93.49
10466;BME280;5280;42.600;23.556;2022-10-03T07:02:38;93336.78;;;13.53;93.62
10466;BME280;5280;42.600;23.556;2022-10-03T07:06:08;93340.97;;;13.65;94.97
10466;BME280;5280;42.600;23.556;2022-10-03T07:12:09;93344.88;;;13.80;91.91
10466;BME280;5280;42.600;23.556;2022-10-03T07:15:06;93343.75;;;13.83;91.18
10466;BME280;5280;42.600;23.556;2022-10-03T07:18:04;93348.34;;;13.91;92.14
10466;BME280;5280;42.600;23.556;2022-10-03T07:20:59;93356.72;;;13.96;90.95
10466;BME280;5280;42.600;23.556;2022-10-03T07:23:59;93348.63;;;13.97;93.23
10466;BME280;5280;42.600;23.556;2022-10-03T07:27:08;93361.38;;;13.94;93.96
10466;BME280;5280;42.600;23.556;2022-10-03T07:29:57;93368.22;;;13.87;94.77
10466;BME280;5280;42.600;23.556;2022-10-03T07:32:50;93383.19;;;13.78;95.80
10466;BME280;5280;42.600;23.556;2022-10-03T07:35:39;93398.56;;;13.74;95.86
10466;BME280;5280;42.600;23.556;2022-10-03T07:38:46;93411.00;;;13.74;96.02
10466;BME280;5280;42.600;23.556;2022-10-03T07:41:52;93416.16;;;13.56;97.21
10466;BME280;5280;42.600;23.556;2022-10-03T07:44:50;93431.41;;;13.54;97.80
10466;BME280;5280;42.600;23.556;2022-10-03T07:48:04;93433.47;;;13.41;99.01
10466;BME280;5280;42.600;23.556;2022-10-03T07:50:56;93420.72;;;13.35;100.00
10466;BME280;5280;42.600;23.556;2022-10-03T07:53:41;93384.81;;;13.12;100.00
10466;BME280;5280;42.600;23.556;2022-10-03T07:56:33;93407.97;;;13.10;100.00
10466;BME280;5280;42.600;23.556;2022-10-03T08:02:25;93404.66;;;12.87;100.00
10466;BME280;5280;42.600;23.556;2022-10-03T08:05:11;93416.97;;;12.88;100.00
10466;BME280;5280;42.600;23.556;2022-10-03T08:08:12;93420.13;;;12.82;100.00
10466;BME280;5280;42.600;23.556;2022-10-03T08:11:03;93418.16;;;12.74;100.00
10466;BME280;5280;42.600;23.556;2022-10-03T08:13:43;93415.59;;;12.63;100.00
10466;BME280;5280;42.600;23.556;2022-10-03T08:16:25;93416.69;;;12.61;100.00
10466;BME280;5280;42.600;23.556;2022-10-03T08:19:24;93404.13;;;12.53;100.00
10466;BME280;5280;42.600;23.556;2022-10-03T08:22:04;93422.69;;;12.53;100.00
10466;BME280;5280;42.600;23.556;2022-10-03T08:24:52;93424.38;;;12.54;100.00
10466;BME280;5280;42.600;23.556;2022-10-03T08:27:36;93430.63;;;12.53;100.00
10466;BME280;5280;42.600;23.556;2022-10-03T08:30:18;93437.22;;;12.59;100.00
10466;BME280;5280;42.600;23.556;2022-10-03T08:32:56;93440.03;;;12.67;100.00
10466;BME280;5280;42.600;23.556;2022-10-03T08:38:31;93435.50;;;12.78;100.00
10466;BME280;5280;42.600;23.556;2022-10-03T08:47:31;93437.78;;;12.92;100.00
10466;BME280;5280;42.600;23.556;2022-10-03T08:50:44;93431.31;;;12.85;100.00
10466;BME280;5280;42.600;23.556;2022-10-03T08:53:44;93447.13;;;12.97;100.00
10466;BME280;5280;42.600;23.556;2022-10-03T08:56:20;93417.63;;;12.80;100.00
10466;BME280;5280;42.600;23.556;2022-10-03T08:59:16;93412.06;;;12.83;100.00
10466;BME280;5280;42.600;23.556;2022-10-03T09:02:14;93436.63;;;13.16;100.00
10466;BME280;5280;42.600;23.556;2022-10-03T09:08:33;93432.59;;;13.21;100.00
10466;BME280;5280;42.600;23.556;2022-10-03T09:17:52;93439.19;;;13.36;100.00
10466;BME280;5280;42.600;23.556;2022-10-03T09:23:56;93434.59;;;13.48;100.00
10466;BME280;5280;42.600;23.556;2022-10-03T09:39:28;93428.59;;;13.75;100.00
10466;BME280;5280;42.600;23.556;2022-10-03T09:45:25;93428.63;;;13.85;100.00
10466;BME280;5280;42.600;23.556;2022-10-03T09:48:12;93425.28;;;13.83;100.00
10466;BME280;5280;42.600;23.556;2022-10-03T09:51:13;93422.63;;;13.83;100.00
10466;BME280;5280;42.600;23.556;2022-10-03T10:00:10;93433.94;;;13.94;100.00
10466;BME280;5280;42.600;23.556;2022-10-03T10:03:19;93436.44;;;13.96;100.00
10466;BME280;5280;42.600;23.556;2022-10-03T10:06:10;93420.25;;;13.99;100.00
10466;BME280;5280;42.600;23.556;2022-10-03T10:09:07;93419.22;;;14.00;100.00
10466;BME280;5280;42.600;23.556;2022-10-03T10:15:38;93423.31;;;14.13;100.00
10466;BME280;5280;42.600;23.556;2022-10-03T10:18:36;93428.19;;;14.18;100.00
10466;BME280;5280;42.600;23.556;2022-10-03T10:21:33;93431.94;;;14.15;100.00
10466;BME280;5280;42.600;23.556;2022-10-03T10:27:28;93421.31;;;14.25;100.00
10466;BME280;5280;42.600;23.556;2022-10-03T10:30:18;93408.31;;;14.22;100.00
10466;BME280;5280;42.600;23.556;2022-10-03T10:33:29;93401.88;;;14.34;100.00
10466;BME280;5280;42.600;23.556;2022-10-03T10:46:14;93412.13;;;14.76;93.02
10466;BME280;5280;42.600;23.556;2022-10-03T11:01:13;93420.66;;;14.79;85.09
10466;BME280;5280;42.600;23.556;2022-10-03T11:04:17;93420.66;;;14.79;82.09
10466;BME280;5280;42.600;23.556;2022-10-03T11:07:07;93414.91;;;14.84;85.48
10466;BME280;5280;42.600;23.556;2022-10-03T11:09:49;93420.50;;;14.81;82.49
10466;BME280;5280;42.600;23.556;2022-10-03T11:18:58;93417.75;;;15.00;79.99
10466;BME280;5280;42.600;23.556;2022-10-03T11:25:05;93400.94;;;15.09;79.88
10466;BME280;5280;42.600;23.556;2022-10-03T11:31:17;93399.47;;;15.15;78.98
10466;BME280;5280;42.600;23.556;2022-10-03T11:34:32;93396.03;;;15.04;78.32
10466;BME280;5280;42.600;23.556;2022-10-03T11:37:15;93392.28;;;14.97;79.11
10466;BME280;5280;42.600;23.556;2022-10-03T11:39:57;93402.22;;;14.95;79.41
10466;BME280;5280;42.600;23.556;2022-10-03T11:42:37;93414.56;;;14.96;80.30
10466;BME280;5280;42.600;23.556;2022-10-03T11:45:18;93410.66;;;14.91;80.21
10466;BME280;5280;42.600;23.556;2022-10-03T11:48:15;93414.63;;;14.77;77.33
10466;BME280;5280;42.600;23.556;2022-10-03T11:50:50;93408.78;;;14.74;78.74
10466;BME280;5280;42.600;23.556;2022-10-03T11:53:29;93416.19;;;14.70;79.24
10466;BME280;5280;42.600;23.556;2022-10-03T11:56:09;93411.88;;;14.69;79.47
10466;BME280;5280;42.600;23.556;2022-10-03T11:58:54;93410.44;;;14.75;78.16
10466;BME280;5280;42.600;23.556;2022-10-03T12:01:35;93413.75;;;14.86;77.09
10466;BME280;5280;42.600;23.556;2022-10-03T12:04:09;93415.31;;;14.89;75.48
10466;BME280;5280;42.600;23.556;2022-10-03T12:06:49;93415.72;;;14.94;76.26
10466;BME280;5280;42.600;23.556;2022-10-03T12:09:45;93406.72;;;14.95;73.24
10466;BME280;5280;42.600;23.556;2022-10-03T12:12:18;93419.19;;;14.94;74.76
10466;BME280;5280;42.600;23.556;2022-10-03T12:14:53;93409.38;;;14.95;74.72
10466;BME280;5280;42.600;23.556;2022-10-03T12:17:29;93407.56;;;14.95;72.28
10466;BME280;5280;42.600;23.556;2022-10-03T12:20:02;93417.13;;;14.88;72.41
10466;BME280;5280;42.600;23.556;2022-10-03T12:22:41;93417.75;;;14.73;75.43
10466;BME280;5280;42.600;23.556;2022-10-03T12:25:20;93411.13;;;14.77;74.79
10466;BME280;5280;42.600;23.556;2022-10-03T12:28:01;93420.81;;;14.78;73.99
10466;BME280;5280;42.600;23.556;2022-10-03T12:30:39;93419.41;;;14.74;75.07
10466;BME280;5280;42.600;23.556;2022-10-03T12:33:47;93407.13;;;14.63;74.03
10466;BME280;5280;42.600;23.556;2022-10-03T12:36:19;93403.06;;;14.69;75.53
10466;BME280;5280;42.600;23.556;2022-10-03T12:38:58;93406.00;;;14.65;76.88
10466;BME280;5280;42.600;23.556;2022-10-03T12:41:53;93399.69;;;14.67;75.70
10466;BME280;5280;42.600;23.556;2022-10-03T12:44:29;93414.38;;;14.71;76.15
10466;BME280;5280;42.600;23.556;2022-10-03T12:47:19;93407.09;;;14.73;76.79
10466;BME280;5280;42.600;23.556;2022-10-03T12:55:59;93403.47;;;14.74;70.58
10466;BME280;5280;42.600;23.556;2022-10-03T13:01:25;93385.25;;;14.79;71.77
10466;BME280;5280;42.600;23.556;2022-10-03T13:04:05;93395.41;;;14.93;70.14
10466;BME280;5280;42.600;23.556;2022-10-03T13:06:55;93397.16;;;15.02;69.92
10466;BME280;5280;42.600;23.556;2022-10-03T13:09:50;93394.66;;;15.00;67.91
10466;BME280;5280;42.600;23.556;2022-10-03T13:12:34;93405.00;;;15.03;67.26
10466;BME280;5280;42.600;23.556;2022-10-03T13:15:38;93397.66;;;15.15;66.25
10466;BME280;5280;42.600;23.556;2022-10-03T13:18:31;93395.38;;;15.20;65.83
10466;BME280;5280;42.600;23.556;2022-10-03T13:21:10;93394.19;;;15.32;65.99
10466;BME280;5280;42.600;23.556;2022-10-03T13:23:53;93398.63;;;15.41;63.26
10466;BME280;5280;42.600;23.556;2022-10-03T13:26:48;93400.56;;;15.49;63.51
10466;BME280;5280;42.600;23.556;2022-10-03T13:29:27;93379.22;;;15.31;60.74
10466;BME280;5280;42.600;23.556;2022-10-03T13:32:16;93391.16;;;15.45;61.67
10466;BME280;5280;42.600;23.556;2022-10-03T13:35:01;93398.63;;;15.41;61.92
10466;BME280;5280;42.600;23.556;2022-10-03T13:41:11;93406.03;;;15.20;60.30
10466;BME280;5280;42.600;23.556;2022-10-03T13:43:50;93410.28;;;15.13;59.49
10466;BME280;5280;42.600;23.556;2022-10-03T13:46:40;93410.16;;;15.05;59.16
10466;BME280;5280;42.600;23.556;2022-10-03T13:49:12;93407.56;;;14.95;61.53
10466;BME280;5280;42.600;23.556;2022-10-03T13:51:49;93401.16;;;14.88;61.59
10466;BME280;5280;42.600;23.556;2022-10-03T13:54:48;93415.72;;;14.94;61.23
10466;BME280;5280;42.600;23.556;2022-10-03T13:57:24;93394.06;;;14.79;63.21
10466;BME280;5280;42.600;23.556;2022-10-03T14:00:00;93408.34;;;14.78;62.34
10466;BME280;5280;42.600;23.556;2022-10-03T14:02:48;93403.13;;;14.86;62.17
10466;BME280;5280;42.600;23.556;2022-10-03T14:08:26;93397.47;;;14.99;60.07
10466;BME280;5280;42.600;23.556;2022-10-03T14:11:10;93399.00;;;15.01;60.06
10466;BME280;5280;42.600;23.556;2022-10-03T14:13:53;93394.19;;;15.05;60.35
10466;BME280;5280;42.600;23.556;2022-10-03T14:16:40;93394.06;;;15.06;60.83
10466;BME280;5280;42.600;23.556;2022-10-03T14:19:24;93383.81;;;15.12;60.57
10466;BME280;5280;42.600;23.556;2022-10-03T14:22:29;93398.78;;;15.13;60.16
10466;BME280;5280;42.600;23.556;2022-10-03T14:25:24;93394.59;;;15.10;57.75
10466;BME280;5280;42.600;23.556;2022-10-03T14:27:56;93388.28;;;15.11;57.98
10466;BME280;5280;42.600;23.556;2022-10-03T14:30:30;93396.31;;;15.01;59.89
10466;BME280;5280;42.600;23.556;2022-10-03T14:33:18;93397.31;;;15.00;59.39
10466;BME280;5280;42.600;23.556;2022-10-03T14:35:57;93401.69;;;14.92;57.07
10466;BME280;5280;42.600;23.556;2022-10-03T14:38:44;93405.38;;;14.81;56.96
10466;BME280;5280;42.600;23.556;2022-10-03T14:41:42;93397.03;;;14.67;56.39
10466;BME280;5280;42.600;23.556;2022-10-03T14:44:20;93403.19;;;14.67;57.62
10466;BME280;5280;42.600;23.556;2022-10-03T14:47:01;93405.19;;;14.55;57.51
10466;BME280;5280;42.600;23.556;2022-10-03T14:49:38;93398.22;;;14.54;57.53
10466;BME280;5280;42.600;23.556;2022-10-03T14:52:18;93414.44;;;14.51;59.58
10466;BME280;5280;42.600;23.556;2022-10-03T14:55:02;93416.69;;;14.46;57.96
10466;BME280;5280;42.600;23.556;2022-10-03T14:57:43;93421.06;;;14.38;58.79
10466;BME280;5280;42.600;23.556;2022-10-03T15:00:33;93431.38;;;14.31;59.72
10466;BME280;5280;42.600;23.556;2022-10-03T15:03:30;93439.34;;;14.31;60.17
10466;BME280;5280;42.600;23.556;2022-10-03T15:06:29;93409.84;;;14.15;59.97
10466;BME280;5280;42.600;23.556;2022-10-03T15:09:07;93432.94;;;14.24;61.30
10466;BME280;5280;42.600;23.556;2022-10-03T15:11:50;93430.72;;;14.19;60.43
10466;BME280;5280;42.600;23.556;2022-10-03T15:14:27;93436.72;;;14.02;62.87
10466;BME280;5280;42.600;23.556;2022-10-03T15:17:20;93423.16;;;13.96;64.15
10466;BME280;5280;42.600;23.556;2022-10-03T15:22:52;93430.03;;;13.89;64.55
10466;BME280;5280;42.600;23.556;2022-10-03T15:25:27;93410.59;;;13.69;65.63
10466;BME280;5280;42.600;23.556;2022-10-03T15:28:11;93424.72;;;13.69;66.53
10466;BME280;5280;42.600;23.556;2022-10-03T15:30:49;93428.19;;;13.70;66.58
10466;BME280;5280;42.600;23.556;2022-10-03T15:33:22;93393.22;;;13.46;65.92
10466;BME280;5280;42.600;23.556;2022-10-03T15:36:11;93413.38;;;13.58;68.70
10466;BME280;5280;42.600;23.556;2022-10-03T15:38:47;93413.09;;;13.51;67.99
10466;BME280;5280;42.600;23.556;2022-10-03T15:41:30;93397.13;;;13.42;67.83
10466;BME280;5280;42.600;23.556;2022-10-03T15:44:16;93378.00;;;13.28;67.61
10466;BME280;5280;42.600;23.556;2022-10-03T15:46:52;93411.13;;;13.44;67.80
10466;BME280;5280;42.600;23.556;2022-10-03T15:49:28;93414.63;;;13.44;68.08
10466;BME280;5280;42.600;23.556;2022-10-03T15:52:12;93411.69;;;13.38;65.62
10466;BME280;5280;42.600;23.556;2022-10-03T15:54:59;93437.38;;;13.37;65.53
10466;BME280;5280;42.600;23.556;2022-10-03T15:57:37;93434.28;;;13.32;66.13
10466;BME280;5280;42.600;23.556;2022-10-03T16:00:11;93430.78;;;13.22;65.12
10466;BME280;5280;42.600;23.556;2022-10-03T16:03:07;93449.78;;;13.27;66.09
10466;BME280;5280;42.600;23.556;2022-10-03T16:05:44;93445.41;;;13.16;66.60
10466;BME280;5280;42.600;23.556;2022-10-03T16:08:22;93440.19;;;13.05;64.69
10466;BME280;5280;42.600;23.556;2022-10-03T16:11:01;93437.63;;;12.84;65.42
10466;BME280;5280;42.600;23.556;2022-10-03T16:13:45;93476.47;;;12.95;67.56
10466;BME280;5280;42.600;23.556;2022-10-03T16:16:30;93474.06;;;12.92;67.07
10466;BME280;5280;42.600;23.556;2022-10-03T16:19:31;93476.28;;;12.87;68.00
10466;BME280;5280;42.600;23.556;2022-10-03T16:22:24;93487.81;;;12.76;67.62
10466;BME280;5280;42.600;23.556;2022-10-03T16:25:21;93474.63;;;12.65;67.67
10466;BME280;5280;42.600;23.556;2022-10-03T16:28:10;93490.41;;;12.67;68.29
10466;BME280;5280;42.600;23.556;2022-10-03T16:30:41;93504.06;;;12.62;68.44
10466;BME280;5280;42.600;23.556;2022-10-03T16:33:14;93443.97;;;12.21;68.57
10466;BME280;5280;42.600;23.556;2022-10-03T16:35:43;93501.69;;;12.59;68.77
10466;BME280;5280;42.600;23.556;2022-10-03T16:38:18;93508.97;;;12.67;68.72
10466;BME280;5280;42.600;23.556;2022-10-03T16:40:54;93511.06;;;12.63;69.29
10466;BME280;5280;42.600;23.556;2022-10-03T16:43:22;93501.94;;;12.56;68.17
10466;BME280;5280;42.600;23.556;2022-10-03T16:45:49;93523.34;;;12.64;69.49
10466;BME280;5280;42.600;23.556;2022-10-03T16:48:20;93512.13;;;12.61;70.02
10466;BME280;5280;42.600;23.556;2022-10-03T16:51:14;93517.44;;;12.61;68.99
10466;BME280;5280;42.600;23.556;2022-10-03T16:53:43;93520.09;;;12.61;70.19
10466;BME280;5280;42.600;23.556;2022-10-03T16:56:14;93526.41;;;12.60;70.69
10466;BME280;5280;42.600;23.556;2022-10-03T16:58:44;93470.06;;;12.26;70.83
10466;BME280;5280;42.600;23.556;2022-10-03T17:01:22;93519.84;;;12.64;71.05
10466;BME280;5280;42.600;23.556;2022-10-03T17:03:54;93517.78;;;12.67;71.39
10466;BME280;5280;42.600;23.556;2022-10-03T17:06:28;93519.13;;;12.62;71.07
10466;BME280;5280;42.600;23.556;2022-10-03T17:08:58;93528.44;;;12.56;71.85
10466;BME280;5280;42.600;23.556;2022-10-03T17:11:30;93517.72;;;12.58;72.26
10466;BME280;5280;42.600;23.556;2022-10-03T17:14:03;93478.75;;;12.28;72.04
10466;BME280;5280;42.600;23.556;2022-10-03T17:16:36;93524.78;;;12.47;72.50
10466;BME280;5280;42.600;23.556;2022-10-03T17:19:18;93520.13;;;12.40;72.47
10466;BME280;5280;42.600;23.556;2022-10-03T17:21:52;93529.72;;;12.41;72.78